Time;durP1;ratioP1;P1;durP2;ratioP2;P2;SDS_P1;SDS_P2;PMS_P1;PMS_P2;Temp;Humidity;BMP_temperature;BMP_pressure;BME280_temperature;BME280_humidity;BME280_pressure;Samples;Min_cycle;Max_cycle;Signal;HPM_P1;HPM_P2
2022/03/16 00:00:27;;;;;;;11.20;8.07;;;;;;;12.04;31.46;100400.09;4362500;32;33935;-88
2022/03/16 00:02:55;;;;;;;14.63;7.72;;;;;;;11.79;32.51;100383.47;4367425;32;33842;-88
2022/03/16 00:05:23;;;;;;;13.00;7.03;;;;;;;11.68;33.37;100364.47;4376243;32;32231;-87
2022/03/16 00:07:51;;;;;;;14.95;7.80;;;;;;;11.26;34.46;100352.00;4368782;32;33479;-87
2022/03/16 00:10:19;;;;;;;18.83;7.82;;;;;;;11.39;34.28;100357.69;4369150;32;33357;-88
2022/03/16 00:12:47;;;;;;;14.10;8.77;;;;;;;11.38;34.59;100377.97;4368743;32;33276;-87
2022/03/16 00:15:15;;;;;;;13.95;7.10;;;;;;;11.59;34.34;100383.37;4355450;32;32450;-87
2022/03/16 00:17:42;;;;;;;14.65;7.82;;;;;;;11.61;33.65;100377.09;4381557;32;33891;-87
2022/03/16 00:20:11;;;;;;;14.98;8.23;;;;;;;11.54;33.65;100379.13;4379438;32;34779;-88
2022/03/16 00:22:39;;;;;;;15.18;7.75;;;;;;;11.39;34.33;100377.03;4374560;32;33731;-88
2022/03/16 00:25:07;;;;;;;16.02;8.73;;;;;;;11.41;34.45;100369.06;4375044;32;34128;-88
2022/03/16 00:27:35;;;;;;;18.10;8.93;;;;;;;11.47;34.21;100366.19;4374563;32;33032;-87
2022/03/16 00:30:04;;;;;;;18.67;9.15;;;;;;;11.10;35.85;100364.91;4353924;32;32367;-88
2022/03/16 00:32:32;;;;;;;18.48;8.95;;;;;;;11.26;36.43;100358.16;4371122;32;33115;-87
2022/03/16 00:35:02;;;;;;;17.05;8.32;;;;;;;11.33;38.06;100364.06;4375873;32;33174;-88
2022/03/16 00:37:32;;;;;;;23.87;9.82;;;;;;;11.45;37.46;100345.09;4354164;32;33703;-87
2022/03/16 00:40:01;;;;;;;23.87;10.18;;;;;;;11.58;38.83;100355.19;4374644;32;33738;-87
2022/03/16 00:42:29;;;;;;;20.70;10.77;;;;;;;11.05;39.49;100353.66;4344037;32;33390;-87
2022/03/16 00:44:57;;;;;;;21.23;10.25;;;;;;;11.31;39.48;100351.84;4372670;32;34125;-87
2022/03/16 00:47:27;;;;;;;17.17;8.80;;;;;;;11.19;41.76;100358.44;4354894;32;32603;-87
2022/03/16 00:49:54;;;;;;;21.45;10.68;;;;;;;11.82;40.55;100349.00;4372808;32;33287;-87
2022/03/16 00:52:22;;;;;;;18.12;9.98;;;;;;;11.33;43.00;100342.91;4353801;32;33176;-87
2022/03/16 00:54:50;;;;;;;17.67;9.35;;;;;;;11.54;41.72;100331.53;4357254;32;32546;-86
2022/03/16 00:57:18;;;;;;;22.42;10.13;;;;;;;11.40;43.22;100331.19;4357126;32;33047;-87
2022/03/16 00:59:45;;;;;;;21.37;10.95;;;;;;;11.05;43.44;100327.22;4356737;32;33281;-87
2022/03/16 01:02:13;;;;;;;20.05;9.85;;;;;;;11.29;42.75;100320.16;4370845;32;34367;-88
2022/03/16 01:04:41;;;;;;;19.25;10.48;;;;;;;11.72;41.34;100318.47;4357400;32;32237;-87
2022/03/16 01:07:09;;;;;;;21.12;10.48;;;;;;;11.42;43.60;100315.25;4356753;32;32930;-87
2022/03/16 01:09:37;;;;;;;17.87;10.02;;;;;;;11.75;42.90;100318.34;4354953;32;32855;-87
2022/03/16 01:12:05;;;;;;;23.70;9.27;;;;;;;11.54;42.38;100318.31;4356786;32;34197;-87
2022/03/16 01:14:32;;;;;;;19.73;9.65;;;;;;;11.28;43.14;100319.28;4363817;32;33497;-86
2022/03/16 01:17:01;;;;;;;17.95;9.35;;;;;;;11.13;44.54;100324.31;4368961;32;34537;-86
2022/03/16 01:19:31;;;;;;;17.15;9.55;;;;;;;11.44;43.75;100326.62;4360011;32;33285;-85
2022/03/16 01:21:59;;;;;;;17.05;10.50;;;;;;;11.41;43.70;100324.97;4370570;32;34818;-85
2022/03/16 01:24:27;;;;;;;23.40;10.13;;;;;;;11.11;45.44;100331.41;4369869;32;32516;-85
2022/03/16 01:26:55;;;;;;;21.15;10.02;;;;;;;11.00;46.69;100340.62;4376493;32;34300;-85
2022/03/16 01:29:26;;;;;;;21.85;10.35;;;;;;;11.00;47.35;100347.69;4363662;32;35021;-86
2022/03/16 01:31:54;;;;;;;15.88;9.18;;;;;;;11.36;45.14;100352.53;4372633;32;34777;-85
2022/03/16 01:34:23;;;;;;;22.23;11.10;;;;;;;11.23;45.52;100347.69;4364292;32;34834;-84
2022/03/16 01:36:51;;;;;;;17.70;9.48;;;;;;;11.19;46.26;100361.06;4371440;32;34210;-85
2022/03/16 01:39:19;;;;;;;16.45;10.00;;;;;;;11.28;46.29;100363.38;4373292;32;33241;-85
2022/03/16 01:41:49;;;;;;;19.45;9.52;;;;;;;11.18;47.19;100365.50;4355617;32;33063;-86
2022/03/16 01:44:17;;;;;;;15.80;9.57;;;;;;;11.13;46.81;100374.53;4372355;32;33419;-86
2022/03/16 01:46:45;;;;;;;19.48;10.15;;;;;;;11.19;46.42;100371.66;4356710;32;33251;-86
2022/03/16 01:49:13;;;;;;;18.05;11.35;;;;;;;11.24;46.10;100361.75;4382519;32;33610;-86
2022/03/16 01:51:42;;;;;;;17.20;9.93;;;;;;;11.09;46.75;100357.91;4375953;32;33644;-86
2022/03/16 01:54:12;;;;;;;20.88;10.32;;;;;;;11.14;46.73;100363.03;4364171;32;32171;-87
2022/03/16 01:56:40;;;;;;;17.73;10.38;;;;;;;11.26;46.77;100355.50;4358289;32;33198;-87
2022/03/16 01:59:10;;;;;;;18.30;11.38;;;;;;;11.27;46.94;100349.31;4358293;32;34487;-87
2022/03/16 02:01:38;;;;;;;19.12;11.77;;;;;;;11.05;48.56;100348.38;4376639;32;34428;-87
2022/03/16 02:04:06;;;;;;;22.60;12.07;;;;;;;11.13;48.71;100348.97;4359857;32;33108;-87
2022/03/16 02:06:34;;;;;;;18.87;11.00;;;;;;;11.22;48.14;100345.13;4368782;32;33033;-87
2022/03/16 02:09:01;;;;;;;19.15;10.85;;;;;;;11.41;47.87;100350.56;4372162;32;32752;-87
2022/03/16 02:11:29;;;;;;;20.12;11.73;;;;;;;11.29;48.46;100351.88;4371024;32;32506;-87
2022/03/16 02:13:57;;;;;;;21.23;12.27;;;;;;;11.32;48.34;100346.50;4372853;32;32687;-87
2022/03/16 02:16:25;;;;;;;19.80;10.40;;;;;;;11.24;48.47;100340.62;4375878;32;33170;-87
2022/03/16 02:18:53;;;;;;;17.65;11.40;;;;;;;11.15;49.08;100330.38;4374914;32;32621;-87
2022/03/16 02:21:21;;;;;;;24.23;11.93;;;;;;;11.18;48.79;100338.22;4368416;32;33415;-87
2022/03/16 02:23:48;;;;;;;19.42;11.30;;;;;;;11.19;48.40;100329.34;4362772;32;32922;-87
2022/03/16 02:26:16;;;;;;;21.48;11.88;;;;;;;11.08;48.74;100323.62;4357513;32;34033;-87
2022/03/16 02:28:44;;;;;;;21.48;11.35;;;;;;;11.15;48.59;100318.03;4370282;32;34080;-87
2022/03/16 02:31:14;;;;;;;21.10;10.63;;;;;;;11.17;48.41;100320.62;4368015;32;33691;-87
2022/03/16 02:33:42;;;;;;;19.58;10.27;;;;;;;11.24;48.77;100325.63;4376205;32;33477;-87
2022/03/16 02:36:10;;;;;;;22.25;10.02;;;;;;;11.34;48.83;100307.63;4358484;32;34346;-87
2022/03/16 02:38:38;;;;;;;20.00;10.93;;;;;;;11.24;49.42;100306.25;4357471;32;32907;-87
2022/03/16 02:41:06;;;;;;;17.30;9.77;;;;;;;11.17;49.54;100295.06;4356952;32;33848;-87
2022/03/16 02:43:34;;;;;;;15.77;10.63;;;;;;;11.18;49.56;100288.00;4368614;32;33172;-87
2022/03/16 02:46:02;;;;;;;17.45;10.38;;;;;;;11.16;49.66;100284.56;4381998;32;32750;-87
2022/03/16 02:48:29;;;;;;;18.73;10.10;;;;;;;11.12;49.93;100275.03;4376062;32;33620;-87
2022/03/16 02:50:58;;;;;;;20.25;10.35;;;;;;;11.07;50.36;100280.47;4383065;32;32862;-87
2022/03/16 02:53:25;;;;;;;19.35;11.75;;;;;;;11.19;50.18;100276.50;4355785;32;32696;-87
2022/03/16 02:55:53;;;;;;;28.00;12.48;;;;;;;10.94;51.22;100277.44;4355928;32;34467;-87
2022/03/16 02:58:21;;;;;;;33.88;15.35;;;;;;;11.09;50.50;100269.84;4356453;32;34415;-87
2022/03/16 03:00:49;;;;;;;22.77;13.62;;;;;;;11.06;49.97;100264.66;4385032;32;32868;-86
2022/03/16 03:03:17;;;;;;;28.62;15.27;;;;;;;11.13;49.83;100264.37;4373002;32;33641;-88
2022/03/16 03:05:45;;;;;;;25.65;13.48;;;;;;;10.89;50.70;100262.69;4376132;32;33199;-87
2022/03/16 03:08:13;;;;;;;25.60;13.50;;;;;;;11.07;50.41;100258.47;4357272;32;33288;-88
2022/03/16 03:10:41;;;;;;;27.67;14.85;;;;;;;11.13;50.20;100255.59;4374473;32;34118;-87
2022/03/16 03:13:09;;;;;;;31.05;15.55;;;;;;;11.03;50.72;100255.94;4360726;32;33025;-87
2022/03/16 03:15:37;;;;;;;35.92;17.90;;;;;;;11.09;50.73;100254.84;4374226;32;33238;-87
2022/03/16 03:18:04;;;;;;;28.95;16.60;;;;;;;11.07;51.22;100255.84;4368402;32;34117;-86
2022/03/16 03:20:32;;;;;;;28.85;16.50;;;;;;;10.99;52.05;100253.47;4356376;32;33225;-86
2022/03/16 03:23:00;;;;;;;27.55;16.73;;;;;;;11.09;52.02;100248.69;4356483;32;33316;-86
2022/03/16 03:25:28;;;;;;;29.12;14.55;;;;;;;10.91;53.15;100239.69;4371685;32;33558;-86
2022/03/16 03:27:56;;;;;;;26.90;13.55;;;;;;;10.77;54.39;100237.56;4370068;32;34496;-86
2022/03/16 03:30:23;;;;;;;24.42;13.95;;;;;;;10.80;55.24;100224.25;4369508;32;32948;-85
2022/03/16 03:32:51;;;;;;;18.98;11.93;;;;;;;10.58;56.41;100215.41;4382729;32;33298;-85
2022/03/16 03:35:19;;;;;;;22.25;11.68;;;;;;;10.48;57.30;100207.81;4369956;32;32721;-85
2022/03/16 03:37:46;;;;;;;19.90;11.60;;;;;;;10.55;57.34;100190.00;4355534;32;33908;-86
2022/03/16 03:40:14;;;;;;;21.45;11.65;;;;;;;10.71;57.06;100185.84;4379617;32;34329;-85
2022/03/16 03:42:42;;;;;;;22.52;11.23;;;;;;;10.55;57.42;100184.72;4376506;32;33405;-84
2022/03/16 03:45:09;;;;;;;24.20;11.12;;;;;;;10.70;56.92;100168.28;4379074;32;34573;-85
2022/03/16 03:47:37;;;;;;;18.35;11.57;;;;;;;10.52;57.78;100161.91;4355745;32;34177;-85
2022/03/16 03:50:05;;;;;;;19.25;10.70;;;;;;;10.50;58.29;100168.19;4374074;32;34723;-85
2022/03/16 03:52:33;;;;;;;17.00;11.02;;;;;;;10.41;58.50;100163.25;4356313;32;32894;-85
2022/03/16 03:55:00;;;;;;;17.92;10.18;;;;;;;10.47;58.15;100166.50;4355272;32;32389;-85
2022/03/16 03:57:28;;;;;;;18.12;10.63;;;;;;;11.08;57.10;100154.50;4370140;32;33870;-85
2022/03/16 03:59:56;;;;;;;18.08;10.95;;;;;;;10.82;58.05;100140.50;4381077;32;34053;-85
2022/03/16 04:02:23;;;;;;;17.02;10.63;;;;;;;10.44;59.16;100150.81;4361880;32;32577;-85
2022/03/16 04:04:51;;;;;;;17.77;10.90;;;;;;;10.45;59.29;100155.16;4374681;32;34452;-86
2022/03/16 04:07:19;;;;;;;17.42;10.35;;;;;;;10.28;60.04;100138.22;4374642;32;33512;-86
2022/03/16 04:09:48;;;;;;;24.08;11.40;;;;;;;10.49;59.05;100138.28;4370462;32;32990;-86
2022/03/16 04:12:17;;;;;;;18.02;10.48;;;;;;;10.51;58.87;100133.78;4369860;32;33253;-87
2022/03/16 04:14:45;;;;;;;17.73;11.10;;;;;;;10.46;58.86;100141.03;4355642;32;33983;-86
2022/03/16 04:17:12;;;;;;;18.77;11.12;;;;;;;10.95;57.49;100130.34;4357577;32;33088;-87
2022/03/16 04:19:40;;;;;;;17.98;10.48;;;;;;;10.83;57.49;100131.69;4374090;32;33442;-86
2022/03/16 04:22:10;;;;;;;17.73;11.00;;;;;;;10.53;58.63;100120.53;4355636;32;33038;-87
2022/03/16 04:24:38;;;;;;;19.27;11.30;;;;;;;10.65;58.51;100127.12;4374820;32;34003;-87
2022/03/16 04:27:06;;;;;;;21.05;12.00;;;;;;;10.39;59.14;100136.88;4373694;32;33784;-87
2022/03/16 04:29:33;;;;;;;17.67;11.48;;;;;;;10.13;60.06;100137.84;4352059;32;94054;-87
2022/03/16 04:32:01;;;;;;;29.95;12.43;;;;;;;10.45;59.12;100144.59;4374663;32;32116;-87
2022/03/16 04:34:29;;;;;;;23.70;12.32;;;;;;;10.68;58.15;100140.19;4370433;32;32645;-86
2022/03/16 04:36:57;;;;;;;24.12;11.82;;;;;;;10.57;58.32;100134.47;4371269;32;34521;-86
2022/03/16 04:39:24;;;;;;;22.10;12.70;;;;;;;10.48;58.67;100131.25;4352964;32;33476;-86
2022/03/16 04:41:53;;;;;;;21.37;11.40;;;;;;;10.21;59.59;100127.88;4355389;32;32226;-83
2022/03/16 04:44:20;;;;;;;20.88;12.55;;;;;;;10.37;59.10;100127.31;4374473;32;33159;-83
2022/03/16 04:46:48;;;;;;;21.00;12.88;;;;;;;10.29;59.49;100143.44;4355551;32;33974;-85
2022/03/16 04:49:16;;;;;;;21.33;11.80;;;;;;;10.34;59.52;100133.56;4382121;32;34070;-85
2022/03/16 04:51:43;;;;;;;20.17;12.10;;;;;;;10.22;59.22;100126.94;4380496;32;33028;-85
2022/03/16 04:54:11;;;;;;;20.45;12.55;;;;;;;10.65;56.73;100135.03;4374351;32;32554;-85
2022/03/16 04:56:39;;;;;;;18.35;12.43;;;;;;;10.81;56.27;100137.94;4355570;32;34142;-86
2022/03/16 04:59:07;;;;;;;18.00;11.52;;;;;;;10.32;57.68;100156.53;4358499;32;33096;-86
2022/03/16 05:01:35;;;;;;;17.62;11.65;;;;;;;10.16;57.53;100160.59;4361303;32;32807;-86
2022/03/16 05:04:06;;;;;;;21.87;12.02;;;;;;;10.40;55.12;100172.94;4368006;32;32557;-86
2022/03/16 05:06:35;;;;;;;21.55;13.73;;;;;;;10.25;55.33;100155.00;4366771;32;34235;-86
2022/03/16 05:09:02;;;;;;;22.55;11.82;;;;;;;10.45;54.46;100163.06;4361759;32;32970;-86
2022/03/16 05:11:30;;;;;;;22.77;11.88;;;;;;;10.52;54.20;100168.97;4374210;32;34074;-87
2022/03/16 05:13:58;;;;;;;19.17;11.00;;;;;;;10.33;55.26;100179.34;4367115;32;34017;-87
2022/03/16 05:16:25;;;;;;;22.13;12.55;;;;;;;10.11;56.62;100173.09;4361738;32;32529;-86
2022/03/16 05:18:53;;;;;;;15.05;9.98;;;;;;;10.57;54.87;100182.00;4385016;32;35093;-87
2022/03/16 05:21:21;;;;;;;18.08;10.25;;;;;;;10.51;54.18;100172.53;4386383;32;34120;-87
2022/03/16 05:23:49;;;;;;;18.95;11.18;;;;;;;10.32;55.65;100187.34;4378098;32;32881;-86
2022/03/16 05:26:17;;;;;;;15.05;9.65;;;;;;;10.38;55.76;100182.69;4369688;32;33593;-86
2022/03/16 05:28:44;;;;;;;19.73;11.23;;;;;;;10.62;55.06;100180.03;4383854;32;34506;-86
2022/03/16 05:31:12;;;;;;;20.05;10.93;;;;;;;10.37;55.82;100178.31;4354745;32;32258;-85
2022/03/16 05:33:41;;;;;;;15.45;10.35;;;;;;;10.46;55.57;100180.63;4369245;32;34212;-84
2022/03/16 05:36:09;;;;;;;19.83;11.27;;;;;;;10.19;55.87;100173.69;4354896;32;33448;-85
2022/03/16 05:38:37;;;;;;;16.50;10.93;;;;;;;10.48;55.11;100170.84;4373635;32;33675;-89
2022/03/16 05:41:05;;;;;;;14.98;10.30;;;;;;;10.42;56.04;100171.09;4361059;32;33007;-89
2022/03/16 05:43:33;;;;;;;17.23;10.50;;;;;;;10.47;56.60;100166.50;4361259;32;33211;-86
2022/03/16 05:46:01;;;;;;;16.92;10.57;;;;;;;10.86;55.08;100162.41;4358293;32;33366;-89
2022/03/16 05:48:29;;;;;;;15.55;9.45;;;;;;;11.00;54.76;100163.56;4361876;32;32304;-89
2022/03/16 05:50:57;;;;;;;14.70;9.38;;;;;;;11.06;54.56;100166.88;4374554;32;33299;-88
2022/03/16 05:53:24;;;;;;;16.62;10.35;;;;;;;11.21;54.18;100179.50;4361172;32;34048;-85
2022/03/16 05:55:53;;;;;;;20.48;9.82;;;;;;;11.08;54.32;100176.50;4358006;32;33512;-85
2022/03/16 05:58:21;;;;;;;16.12;9.93;;;;;;;10.82;55.74;100188.06;4369242;32;33171;-85
2022/03/16 06:00:49;;;;;;;14.85;9.48;;;;;;;10.76;56.09;100196.22;4360492;32;33288;-87
2022/03/16 06:03:17;;;;;;;15.15;9.18;;;;;;;10.96;55.67;100212.16;4368083;32;33931;-87
2022/03/16 06:05:45;;;;;;;14.55;8.88;;;;;;;10.74;56.07;100212.16;4376128;32;32796;-87
2022/03/16 06:08:13;;;;;;;14.68;9.75;;;;;;;10.39;56.94;100215.22;4382340;32;34344;-88
2022/03/16 06:10:41;;;;;;;15.93;9.10;;;;;;;10.17;59.01;100209.84;4375227;32;32984;-87
2022/03/16 06:13:08;;;;;;;17.42;9.13;;;;;;;10.42;58.09;100204.56;4381217;32;33487;-88
2022/03/16 06:15:41;;;;;;;19.02;9.70;;;;;;;10.59;57.28;100211.88;4362425;32;33297;-87
2022/03/16 06:18:10;;;;;;;13.98;9.40;;;;;;;10.64;57.43;100210.78;4362290;32;32922;-87
2022/03/16 06:20:38;;;;;;;14.45;9.35;;;;;;;10.79;56.44;100214.63;4387983;32;33246;-87
2022/03/16 06:23:05;;;;;;;15.75;10.77;;;;;;;11.29;54.74;100209.13;4370110;32;32920;-86
2022/03/16 06:25:39;;;;;;;13.20;8.63;;;;;;;11.18;55.36;100213.97;4368194;32;33907;-87
2022/03/16 06:28:07;;;;;;;20.20;9.98;;;;;;;11.13;55.76;100205.38;4363625;32;33514;-87
2022/03/16 06:30:35;;;;;;;15.75;9.32;;;;;;;11.17;56.23;100207.00;4362034;32;33523;-91
2022/03/16 06:33:07;;;;;;;15.00;9.70;;;;;;;11.00;56.85;100219.06;4365109;32;32992;-92
2022/03/16 06:35:42;;;;;;;12.48;9.05;;;;;;;11.33;56.51;100210.72;4364701;32;33295;-91
2022/03/16 06:38:11;;;;;;;14.10;9.60;;;;;;;11.33;56.95;100200.16;4367982;32;33406;-91
2022/03/16 06:40:50;;;;;;;15.18;10.35;;;;;;;11.59;56.28;100207.03;4370627;32;32871;-91
2022/03/16 06:43:40;;;;;;;15.27;8.60;;;;;;;11.60;56.12;100205.25;4362183;32;33031;-90
2022/03/16 06:46:22;;;;;;;12.25;8.43;;;;;;;11.67;56.52;100206.69;4363969;32;33138;-90
2022/03/16 06:49:11;;;;;;;16.65;9.57;;;;;;;11.63;57.34;100207.75;4363385;32;33244;-90
2022/03/16 06:51:40;;;;;;;14.20;8.80;;;;;;;11.52;58.04;100216.97;4335434;32;33240;-90
2022/03/16 06:54:29;;;;;;;14.52;9.20;;;;;;;11.46;58.23;100217.25;4327068;33;32950;-90
2022/03/16 06:57:16;;;;;;;16.70;9.85;;;;;;;11.54;58.38;100209.87;4336334;33;32433;-90
2022/03/16 07:00:08;;;;;;;12.88;9.02;;;;;;;11.67;58.22;100220.78;4346756;33;33259;-90
2022/03/16 07:02:54;;;;;;;17.92;9.88;;;;;;;11.66;58.52;100226.16;4403044;32;32524;-90
2022/03/16 07:05:45;;;;;;;12.18;8.25;;;;;;;11.69;58.07;100228.66;4379413;32;32741;-90
2022/03/16 07:08:14;;;;;;;12.63;8.43;;;;;;;11.97;56.95;100231.06;4378854;32;33060;-90
2022/03/16 07:11:07;;;;;;;12.60;8.15;;;;;;;11.80;57.61;100231.72;4332306;33;33336;-90
2022/03/16 07:14:30;;;;;;;16.73;7.95;;;;;;;11.87;57.70;100227.06;4377653;32;32841;-90
2022/03/16 07:16:47;;;;;;;9.77;7.35;;;;;;;11.66;58.16;100234.06;4387845;32;32558;-90
2022/03/16 07:19:30;;;;;;;13.65;7.90;;;;;;;11.52;58.89;100235.50;4379934;32;33050;-90
2022/03/16 07:22:34;;;;;;;16.90;9.48;;;;;;;11.67;59.12;100225.22;4359584;32;32905;-92
2022/03/16 07:25:22;;;;;;;11.75;7.93;;;;;;;11.34;60.21;100236.22;4360668;32;32358;-90
2022/03/16 07:27:52;;;;;;;13.70;8.40;;;;;;;11.39;60.25;100233.41;4362181;32;32244;-90
2022/03/16 07:30:35;;;;;;;;;;;;;;;11.78;59.15;100233.59;4371342;32;33044;-92
2022/03/16 07:33:26;;;;;;;16.52;8.07;;;;;;;11.75;59.29;100223.13;4373886;32;33018;-91
2022/03/16 07:36:05;;;;;;;19.48;8.43;;;;;;;11.98;59.04;100220.41;4352934;32;32807;-92
2022/03/16 07:38:57;;;;;;;12.13;8.07;;;;;;;11.97;59.25;100223.97;4381489;32;33035;-92
2022/03/16 07:41:42;;;;;;;13.13;8.05;;;;;;;12.32;58.07;100221.56;4393882;32;32752;-92
2022/03/16 07:44:36;;;;;;;13.10;7.70;;;;;;;11.94;59.39;100232.03;4373300;32;33870;-91
2022/03/16 07:47:12;;;;;;;13.90;7.60;;;;;;;11.89;59.75;100231.38;4373762;32;33018;-89
2022/03/16 07:49:40;;;;;;;12.10;7.80;;;;;;;12.01;59.30;100228.22;4397807;32;33640;-89
2022/03/16 07:52:08;;;;;;;13.68;7.97;;;;;;;11.96;59.59;100237.25;4372968;32;33022;-91
2022/03/16 07:54:36;;;;;;;12.70;8.13;;;;;;;11.85;59.96;100239.50;4373392;32;33376;-90
2022/03/16 07:57:04;;;;;;;16.58;8.40;;;;;;;11.90;59.84;100238.38;4372709;32;34743;-89
2022/03/16 07:59:32;;;;;;;11.30;7.45;;;;;;;11.94;59.93;100241.75;4372883;32;34079;-90
2022/03/16 08:01:59;;;;;;;11.98;8.13;;;;;;;12.18;59.11;100231.91;4385534;32;32519;-90
2022/03/16 08:04:27;;;;;;;12.77;7.53;;;;;;;11.77;60.42;100245.06;4348468;32;33367;-90
2022/03/16 08:06:55;;;;;;;12.98;8.15;;;;;;;12.04;59.73;100241.31;4372974;32;33526;-90
2022/03/16 08:09:24;;;;;;;15.63;8.05;;;;;;;12.24;59.33;100250.16;4359695;32;34710;-90
2022/03/16 08:11:53;;;;;;;11.77;8.18;;;;;;;11.84;60.48;100251.00;4360482;32;34220;-90
2022/03/16 08:14:20;;;;;;;16.00;8.57;;;;;;;12.02;60.20;100248.47;4360143;32;33637;-90
2022/03/16 08:16:49;;;;;;;10.57;7.57;;;;;;;11.83;60.91;100258.09;4371434;32;33385;-90
2022/03/16 08:19:18;;;;;;;12.32;7.65;;;;;;;12.05;59.96;100242.16;4360401;32;33536;-90
2022/03/16 08:21:47;;;;;;;14.48;7.85;;;;;;;11.97;60.11;100254.88;4360791;32;34096;-90
2022/03/16 08:24:16;;;;;;;11.85;9.02;;;;;;;11.95;60.42;100246.12;4373082;32;33066;-90
2022/03/16 08:26:45;;;;;;;12.88;8.02;;;;;;;12.08;59.86;100246.47;4384957;32;34674;-90
2022/03/16 08:29:13;;;;;;;13.10;8.13;;;;;;;12.28;59.23;100254.41;4372880;32;33849;-90
2022/03/16 08:31:42;;;;;;;12.90;8.75;;;;;;;12.24;59.32;100260.75;4360699;32;33526;-90
2022/03/16 08:34:10;;;;;;;14.35;8.75;;;;;;;12.27;59.04;100258.84;4372766;32;32725;-90
2022/03/16 08:36:39;;;;;;;14.25;8.93;;;;;;;12.30;58.23;100265.81;4360379;32;32206;-90
2022/03/16 08:39:06;;;;;;;12.82;8.68;;;;;;;11.88;59.35;100271.13;4383931;32;33237;-90
2022/03/16 08:41:35;;;;;;;16.60;10.07;;;;;;;11.88;59.24;100274.63;4372519;32;33417;-90
2022/03/16 08:44:03;;;;;;;14.73;10.20;;;;;;;11.60;60.45;100272.22;4372767;32;35900;-90
2022/03/16 08:46:31;;;;;;;17.67;9.65;;;;;;;11.84;60.14;100274.84;4372164;32;33894;-90
2022/03/16 08:49:00;;;;;;;14.55;9.88;;;;;;;11.80;60.60;100276.69;4359591;32;32840;-91
2022/03/16 08:51:28;;;;;;;11.85;8.57;;;;;;;11.47;61.95;100277.13;4372663;32;33057;-90
2022/03/16 08:53:57;;;;;;;15.27;10.18;;;;;;;11.65;61.43;100290.56;4372697;32;33404;-90
2022/03/16 08:56:24;;;;;;;16.77;9.43;;;;;;;11.88;60.73;100287.00;4372774;32;33181;-91
2022/03/16 08:58:52;;;;;;;14.32;9.65;;;;;;;11.69;61.54;100298.31;4360489;32;35642;-91
2022/03/16 09:01:20;;;;;;;15.15;9.75;;;;;;;11.62;61.97;100309.19;4360014;32;33367;-91
2022/03/16 09:03:49;;;;;;;15.75;9.73;;;;;;;11.76;61.33;100299.75;4366378;32;33122;-90
2022/03/16 09:06:17;;;;;;;17.23;10.57;;;;;;;12.11;60.01;100310.75;4372100;32;32064;-90
2022/03/16 09:08:44;;;;;;;15.15;10.52;;;;;;;12.00;60.36;100308.53;4372647;32;34510;-90
2022/03/16 09:11:24;;;;;;;21.42;12.13;;;;;;;12.04;60.48;100299.53;4365788;32;32504;-91
2022/03/16 09:13:51;;;;;;;14.68;9.27;;;;;;;11.99;60.64;100306.81;4360172;32;33257;-91
2022/03/16 09:16:19;;;;;;;15.48;8.93;;;;;;;11.99;59.87;100303.28;4365599;32;32413;-91
2022/03/16 09:18:49;;;;;;;13.43;9.38;;;;;;;11.92;60.04;100315.94;4372190;32;33200;-90
2022/03/16 09:21:17;;;;;;;14.87;9.75;;;;;;;11.83;59.80;100320.75;4386037;32;33644;-90
2022/03/16 09:23:45;;;;;;;15.40;10.80;;;;;;;11.49;60.48;100324.69;4369446;32;34086;-90
2022/03/16 09:26:21;;;;;;;13.93;9.77;;;;;;;11.61;60.50;100333.91;4362331;32;32947;-91
2022/03/16 09:29:00;;;;;;;13.20;10.32;;;;;;;11.43;60.60;100336.34;4372120;32;33868;-91
2022/03/16 09:31:37;;;;;;;14.23;8.32;;;;;;;11.28;61.33;100334.31;4385560;32;34263;-91
2022/03/16 09:34:09;;;;;;;17.00;9.85;;;;;;;10.95;61.87;100342.56;4374057;32;32855;-91
2022/03/16 09:36:37;;;;;;;15.13;9.20;;;;;;;10.79;62.21;100351.97;4374543;32;33241;-90
2022/03/16 09:39:10;;;;;;;13.70;8.40;;;;;;;10.94;61.72;100343.50;4361772;32;33031;-90
2022/03/16 09:41:38;;;;;;;12.23;8.55;;;;;;;10.61;62.82;100348.19;4374462;32;32605;-90
2022/03/16 09:44:06;;;;;;;13.80;8.30;;;;;;;10.76;62.80;100358.22;4374361;32;33347;-90
2022/03/16 09:46:56;;;;;;;12.93;7.93;;;;;;;10.52;63.50;100370.50;4382405;32;32090;-90
2022/03/16 09:49:28;;;;;;;17.58;7.65;;;;;;;10.70;62.99;100368.16;4374631;32;33637;-91
2022/03/16 09:52:02;;;;;;;13.48;9.07;;;;;;;10.56;63.65;100380.97;4371925;32;32879;-90
2022/03/16 09:54:34;;;;;;;25.80;13.35;;;;;;;10.36;64.61;100374.59;4373812;32;33430;-89
2022/03/16 09:57:02;;;;;;;;;;;;;;;10.71;63.69;100383.06;4374267;32;32974;-89
2022/03/16 09:59:30;;;;;;;16.48;10.93;;;;;;;10.57;64.22;100387.97;4373959;32;33839;-89
2022/03/16 10:02:09;;;;;;;13.60;8.75;;;;;;;10.70;63.70;100382.22;4385964;32;34182;-90
2022/03/16 10:04:39;;;;;;;12.50;10.20;;;;;;;10.79;63.56;100378.38;4373362;32;32767;-88
2022/03/16 10:07:06;;;;;;;17.87;10.38;;;;;;;10.50;64.58;100388.19;4373447;32;33502;-89
2022/03/16 10:15:18;;;;;;;15.38;10.02;;;;;;;10.39;64.88;100392.94;4371708;32;32837;-88
2022/03/16 10:17:48;;;;;;;18.52;10.32;;;;;;;10.57;64.21;100393.25;4385749;32;33659;-89
2022/03/16 10:20:34;;;;;;;13.18;8.80;;;;;;;10.59;64.42;100396.72;4373147;32;33220;-89
2022/03/16 10:23:01;;;;;;;13.15;8.55;;;;;;;10.74;63.86;100401.47;4373234;32;33602;-89
2022/03/16 10:25:32;;;;;;;13.50;9.80;;;;;;;10.41;64.88;100399.06;4373868;32;32935;-89
2022/03/16 10:28:10;;;;;;;13.68;9.02;;;;;;;10.57;63.87;100398.53;4360487;32;33890;-89
2022/03/16 10:30:57;;;;;;;13.73;9.30;;;;;;;10.63;63.53;100393.03;4373202;32;33797;-89
2022/03/16 10:33:31;;;;;;;11.32;7.78;;;;;;;10.72;62.81;100405.91;4398557;32;34161;-89
2022/03/16 10:36:08;;;;;;;14.35;9.15;;;;;;;10.54;63.79;100406.53;4384366;32;32871;-89
2022/03/16 10:38:41;;;;;;;13.35;8.25;;;;;;;10.13;64.78;100408.75;4391901;32;33321;-89
2022/03/16 10:46:34;;;;;;;15.05;8.70;;;;;;;10.39;63.72;100400.00;4373466;32;33599;-89
2022/03/16 10:46:52;;;;;;;12.75;8.45;;;;;;;10.67;62.80;100405.22;4382212;32;33671;-89
2022/03/16 10:49:22;;;;;;;11.12;7.62;;;;;;;10.22;64.40;100400.53;4366270;32;32381;-90
2022/03/16 10:52:05;;;;;;;10.02;7.95;;;;;;;10.54;63.39;100403.91;4365856;32;32768;-89
2022/03/16 10:54:35;;;;;;;11.85;9.40;;;;;;;10.55;63.38;100401.22;4373027;32;33251;-89
2022/03/16 10:57:05;;;;;;;11.07;7.07;;;;;;;10.88;62.62;100399.19;4385343;32;33761;-90
2022/03/16 10:59:34;;;;;;;10.18;7.32;;;;;;;10.74;62.25;100401.47;4367843;32;33255;-89
2022/03/16 11:02:06;;;;;;;12.37;7.32;;;;;;;10.56;63.02;100402.94;4385596;32;34640;-89
2022/03/16 11:04:35;;;;;;;;;;;;;;;11.08;61.50;100397.63;4349151;32;33250;-89
2022/03/16 11:07:04;;;;;;;12.00;8.07;;;;;;;11.00;61.10;100406.66;4385702;32;34060;-90
2022/03/16 11:09:34;;;;;;;11.75;6.50;;;;;;;10.86;61.65;100414.22;4361046;32;33005;-89
2022/03/16 11:15:01;;;;;;;10.65;7.80;;;;;;;10.69;61.90;100416.63;4371069;32;32974;-89
2022/03/16 11:17:37;;;;;;;;;;;;;;;11.07;61.06;100409.97;4373304;32;32723;-88
2022/03/16 11:20:08;;;;;;;9.50;5.62;;;;;;;11.06;60.81;100423.22;4385592;32;32334;-88
2022/03/16 11:24:15;;;;;;;10.82;7.32;;;;;;;11.09;60.07;100425.78;4359663;32;32753;-88
2022/03/16 11:25:49;;;;;;;8.32;5.57;;;;;;;10.75;61.32;100429.59;4373318;32;33009;-88
2022/03/16 11:28:23;;;;;;;8.45;5.85;;;;;;;11.13;60.00;100430.03;4385167;32;33477;-88
2022/03/16 11:30:53;;;;;;;8.05;5.97;;;;;;;10.82;60.98;100436.38;4372369;32;32839;-88
2022/03/16 11:33:24;;;;;;;9.30;5.95;;;;;;;11.02;60.07;100439.22;4372859;32;33995;-88
2022/03/16 11:35:52;;;;;;;9.00;6.62;;;;;;;10.77;60.95;100443.59;4372854;32;33626;-88
2022/03/16 11:38:21;;;;;;;12.13;7.05;;;;;;;10.76;61.00;100441.88;4372112;32;33358;-88
2022/03/16 11:40:51;;;;;;;8.65;5.75;;;;;;;11.13;59.61;100425.59;4372962;32;33622;-88